Aviation Digital Data Service (ADDS)

Output produced by METARs form (1054 UTC 19 February 2019)
found at http://www.aviationweather.gov/metar/data/
 
Forecast for: LFPV (VILLACOUBLAY/VEL, FR)
Text: TAF LFPV 190800Z 1909/2009 27005KT 9999 BKN005
Forecast period: 0900 to 1000 UTC 19 February 2019
Forecast type: FROM: standard forecast or significant change
Winds: from the W (270 degrees) at 6 MPH (5 knots; 2.6 m/s)
Visibility: 6 or more miles 10+ km)
Ceiling: 500 feet AGL
Clouds: broken clouds at 500 feet AGL
Weather: no significant weather forecast for this period
Text: BECMG 1910/1912 SCT025
Forecast period: 1000 UTC 19 February 2019 to 0200 UTC 20 February 2019
Forecast type: BECOMING: Conditions expected to become as follows by 1200 UTC 19 February 2019
Winds: from the W (270 degrees) at 6 MPH (5 knots; 2.6 m/s)
Visibility: 6 or more miles 10+ km)
Ceiling: at least 12,000 feet AGL
Clouds: scattered clouds at 2500 feet AGL
Weather: no significant weather forecast for this period
Text: BECMG 2002/2004 0500 FG VV///
Forecast period: 0200 to 0900 UTC 20 February 2019
Forecast type: BECOMING: Conditions expected to become as follows by 0400 UTC 20 February 2019
Winds: from the W (270 degrees) at 6 MPH (5 knots; 2.6 m/s)
Visibility: 0.31 miles (0.50 km)
Ceiling: at least 12,000 feet AGL
Clouds: scattered clouds at 2500 feet AGL
Weather: FG  (fog)